Terminal Aerodrome Forecast
Issued by NWS

Home | Current Version | Previous Version | Text Only | Print | Product List | Glossary On
Versions: 1 2 3 4 5 6 7 8 9 10 11 12 13 14 15 16
000
FTUS44 KEPZ 030532
TAFDMN
TAF
KDMN 030532Z 0306/0406 01015G25KT P6SM VCTS BKN100CB BKN250
     FM030900 05010KT P6SM FEW080 BKN250
     FM031800 10009G16KT P6SM SCT080 BKN250
     FM032200 11008KT P6SM VCTS SCT070CB BKN250=

USA.gov is the U.S. government's official web portal to all federal, state and local government web resources and services.